Pagrindinis puslapis
METAR-TAF:

METAR-TAF

Oro uostai :

Džakarta, Java, Indonezija

platuma: 06-07S, ilguma: 106-39E, Aukštis: 8 m

Dabartinis oras

Ataskaita buvo paskelbta 35 minutes, ne 08:00 UTC
Vėjas 10 kt iš Šiaurės/Šiaurės Vakarų
Temperatūra 29°C
Drėgmė 74%
Slėgis 1006 hPa
Matomumas: 8000 m
Su prošvaistėmis ne aukštis 1900 ft

METAR: WIII 170800Z 34010KT 8000 BKN019 29/24 Q1006 NOSIG

Laikas: 15:35 (08:35 UTC)

Prognozė

Ataskaita buvo paskelbta 2 valandos ir 35 minutes, ne 06:00 UTC
Prognozė galioja nuo 17 metu 06 UTC su 18 metu 12 UTC
Vėjas 10 kt iš Vakarų/Šiaurės Vakarų
Matomumas: 9000 m
Išsisklaidę debesys ne aukštis 2000 ft
Laikinai
nuo 17 metu 06 UTC su 17 metu 09 UTC
Matomumas: 5000 m
lietus
Tapsmas
nuo 17 metu 13 UTC su 17 metu 15 UTC
Vėjas 3 kt iš Pietvakarių

TAF: WIII 170600Z 1706/1812 30010KT 9000 SCT020 TEMPO 1706/1709 5000 RA BECMG 1713/1715 22003KT

Orai ataskaitas ir orų prognozės (METAR, TAF).

turimą stotys yra geltonos ir raudonos taškus žemėlapyje.

Perkelti pele per norėdami pamatyti stoties vardą.

Tada spustelėkite, norėdami matyti oro stebėjimo ir prognozės.

Norėdami pakeisti žemėlapį: spustelėkite ant žalios mygtukų su juodo kryžiaus žemyn,; žalią mygtuką su brūkšneliu, jei norite nutolinti; arba žalių rodyklių gretimoms žemėlapius.


METAR-TAF: